< < Back
Terminal Aerodrome Forecast


Current Version              Previous Versions:   1  2  3  4  5  6  7  8  9  

Terminal Aerodrome Forecast

568
FTUS42 KILM 010454 AAD
TAFILM
TAF AMD
KILM 010454Z 0105/0124 10009KT P6SM OVC009
     FM011400 16008KT P6SM VCSH SCT007 OVC015
      TEMPO 0117/0120 5SM -SHRA BKN025=

Latest METAR

249
SAUS70 KWBC 011000 RRQ
MTRILM
METAR KILM 010953Z 09004KT 6SM BR FEW005 SCT012 OVC020 18/17 A3010 RMK
AO2 SLP193 T01830172


USA.gov is the U.S. government's official web portal to all federal, state and local government web resources and services.